Time;durP1;ratioP1;P1;durP2;ratioP2;P2;SDS_P1;SDS_P2;PMS_P1;PMS_P2;Temp;Humidity;BMP_temperature;BMP_pressure;BME280_temperature;BME280_humidity;BME280_pressure;Samples;Min_cycle;Max_cycle;Signal;HPM_P1;HPM_P2
2023/07/23 00:02:06;;;;;;;3.08;1.90;;;13.90;64.30;;;;;;5011149;28;20034;-77
2023/07/23 00:04:34;;;;;;;4.35;2.38;;;14.10;64.70;;;;;;5014448;28;20033;-75
2023/07/23 00:07:02;;;;;;;2.95;1.90;;;14.20;64.10;;;;;;5011967;28;20072;-75
2023/07/23 00:09:29;;;;;;;3.55;2.05;;;14.40;63.70;;;;;;5012406;28;20046;-76
2023/07/23 00:11:56;;;;;;;2.95;1.98;;;14.70;63.00;;;;;;5013685;28;20095;-75
2023/07/23 00:14:24;;;;;;;5.18;2.35;;;14.90;62.20;;;;;;5011182;28;20104;-76
2023/07/23 00:16:52;;;;;;;4.35;1.90;;;15.00;61.30;;;;;;5011612;28;20029;-75
2023/07/23 00:19:19;;;;;;;4.03;2.05;;;14.90;61.70;;;;;;5024193;28;20633;-77
2023/07/23 00:21:48;;;;;;;4.07;1.95;;;15.10;61.80;;;;;;5006027;28;20022;-76
2023/07/23 00:24:21;;;;;;;4.45;1.63;;;15.30;60.90;;;;;;5012810;28;20030;-76
2023/07/23 00:26:48;;;;;;;3.53;1.85;;;15.40;60.60;;;;;;5009392;28;20022;-77
2023/07/23 00:29:15;;;;;;;4.18;1.90;;;15.30;60.60;;;;;;5008121;28;20053;-77
2023/07/23 00:31:43;;;;;;;4.65;1.67;;;15.30;60.60;;;;;;5014677;28;20036;-80
2023/07/23 00:34:10;;;;;;;4.47;2.42;;;15.40;60.90;;;;;;5011254;28;20481;-78
2023/07/23 00:36:38;;;;;;;4.88;2.17;;;15.40;61.20;;;;;;5010283;28;20120;-77
2023/07/23 00:39:05;;;;;;;2.83;2.03;;;15.50;60.40;;;;;;5017112;28;20468;-77
2023/07/23 00:41:33;;;;;;;3.25;1.52;;;15.50;60.20;;;;;;5012429;28;20479;-75
2023/07/23 00:44:01;;;;;;;6.60;2.10;;;15.70;61.10;;;;;;5010173;28;20392;-78
2023/07/23 00:46:28;;;;;;;5.93;1.98;;;15.80;61.30;;;;;;5011771;28;20026;-75
2023/07/23 00:48:56;;;;;;;5.30;1.83;;;15.90;61.50;;;;;;5011306;28;20018;-75
2023/07/23 00:51:24;;;;;;;3.92;1.90;;;16.00;61.10;;;;;;5012620;28;20042;-77
2023/07/23 00:53:51;;;;;;;6.90;2.35;;;16.10;61.50;;;;;;5007595;28;20034;-76
2023/07/23 00:56:22;;;;;;;5.22;1.70;;;16.20;61.90;;;;;;5013040;28;20114;-77
2023/07/23 00:58:49;;;;;;;6.03;1.92;;;16.30;62.40;;;;;;5027899;28;20026;-76
2023/07/23 01:01:18;;;;;;;5.55;1.90;;;16.50;62.50;;;;;;5022200;28;20030;-76
2023/07/23 01:03:46;;;;;;;6.95;1.77;;;16.70;62.50;;;;;;5013162;28;20033;-79
2023/07/23 01:06:15;;;;;;;5.15;1.77;;;16.80;62.60;;;;;;5028729;28;20030;-82
2023/07/23 01:08:45;;;;;;;4.35;1.42;;;16.90;62.50;;;;;;5012972;28;20634;-75
2023/07/23 01:11:12;;;;;;;3.63;1.70;;;17.00;62.50;;;;;;5015730;28;20097;-79
2023/07/23 01:13:41;;;;;;;5.28;1.48;;;17.20;62.60;;;;;;5030893;28;20476;-76
2023/07/23 01:16:10;;;;;;;3.33;1.40;;;17.20;62.30;;;;;;5045241;28;20511;-78
2023/07/23 01:18:41;;;;;;;7.63;1.75;;;17.30;61.80;;;;;;5019711;28;20083;-76
2023/07/23 01:21:14;;;;;;;5.65;1.55;;;17.40;61.60;;;;;;5026897;28;20116;-75
2023/07/23 01:23:43;;;;;;;5.25;1.60;;;17.50;61.70;;;;;;5019448;28;20491;-76
2023/07/23 01:26:11;;;;;;;5.68;1.58;;;17.40;61.30;;;;;;5012793;28;20072;-78
2023/07/23 01:28:38;;;;;;;7.63;1.70;;;17.50;61.60;;;;;;5014258;28;20523;-75
2023/07/23 01:31:07;;;;;;;4.53;1.33;;;17.60;61.60;;;;;;5021610;28;20080;-75
2023/07/23 01:33:35;;;;;;;6.88;1.90;;;17.60;61.20;;;;;;5020247;28;20028;-76
2023/07/23 01:36:03;;;;;;;5.32;1.60;;;17.50;61.20;;;;;;5019876;28;20037;-75
2023/07/23 01:38:30;;;;;;;4.38;1.48;;;17.50;61.30;;;;;;5013631;28;20350;-74
2023/07/23 01:40:58;;;;;;;3.33;1.63;;;17.50;61.70;;;;;;5012583;28;20071;-77
2023/07/23 01:43:25;;;;;;;5.07;1.65;;;17.50;61.30;;;;;;5020027;28;20388;-75
2023/07/23 01:45:53;;;;;;;8.00;1.63;;;17.40;61.40;;;;;;5019212;28;20036;-75
2023/07/23 01:48:23;;;;;;;5.00;1.70;;;17.50;61.40;;;;;;5013196;28;20026;-75
2023/07/23 01:50:50;;;;;;;4.28;1.63;;;17.50;61.60;;;;;;5013710;28;20046;-79
2023/07/23 01:53:18;;;;;;;4.65;1.58;;;17.50;60.90;;;;;;5015524;28;20081;-76
2023/07/23 01:55:45;;;;;;;11.00;2.17;;;17.60;60.30;;;;;;5027018;28;20025;-75
2023/07/23 01:58:12;;;;;;;5.30;1.50;;;17.60;60.20;;;;;;5014531;28;20384;-76
2023/07/23 02:00:41;;;;;;;6.30;1.52;;;17.70;60.00;;;;;;5015294;28;20487;-76
2023/07/23 02:03:09;;;;;;;3.40;1.13;;;17.70;59.10;;;;;;5016274;28;20075;-75
2023/07/23 02:05:38;;;;;;;4.40;1.45;;;17.70;57.50;;;;;;5034067;28;20029;-76
2023/07/23 02:08:05;;;;;;;2.50;1.17;;;17.60;56.80;;;;;;5026324;28;20018;-77
2023/07/23 02:10:33;;;;;;;5.85;1.38;;;17.50;56.80;;;;;;5016039;28;20108;-76
2023/07/23 02:13:00;;;;;;;4.43;1.15;;;17.50;56.80;;;;;;5018238;28;20048;-74
2023/07/23 02:15:27;;;;;;;2.22;1.00;;;17.50;56.20;;;;;;5035579;28;20032;-77
2023/07/23 02:17:55;;;;;;;2.55;1.30;;;17.50;55.60;;;;;;5020516;28;20412;-76
2023/07/23 02:20:22;;;;;;;5.05;1.30;;;17.50;55.90;;;;;;5013496;28;20101;-74
2023/07/23 02:22:49;;;;;;;3.67;1.38;;;17.40;55.60;;;;;;5014654;28;20056;-76
2023/07/23 02:25:17;;;;;;;2.72;1.08;;;17.40;55.80;;;;;;5014179;28;20100;-76
2023/07/23 02:27:44;;;;;;;4.15;1.08;;;17.40;55.30;;;;;;5016376;28;20080;-76
2023/07/23 02:30:12;;;;;;;5.65;1.50;;;17.50;55.30;;;;;;5013389;28;20034;-76
2023/07/23 02:32:41;;;;;;;3.85;1.10;;;17.40;55.00;;;;;;5021475;28;20029;-77
2023/07/23 02:35:09;;;;;;;6.20;1.20;;;17.40;55.40;;;;;;5015889;28;20113;-75
2023/07/23 02:37:36;;;;;;;6.32;1.40;;;17.40;55.90;;;;;;5028889;28;20123;-75
2023/07/23 02:40:04;;;;;;;1.38;0.98;;;17.40;56.00;;;;;;5037243;28;20025;-75
2023/07/23 02:42:31;;;;;;;2.70;1.00;;;17.30;55.50;;;;;;5018530;28;20057;-74
2023/07/23 02:44:58;;;;;;;2.90;1.27;;;17.30;55.40;;;;;;5030075;28;20060;-77
2023/07/23 02:47:26;;;;;;;3.40;1.20;;;17.30;55.00;;;;;;5032486;28;20068;-77
2023/07/23 02:49:53;;;;;;;2.13;1.00;;;17.30;55.20;;;;;;5033682;28;20044;-77
2023/07/23 02:52:21;;;;;;;4.80;1.08;;;17.40;55.60;;;;;;5017468;28;20029;-76
2023/07/23 02:54:50;;;;;;;2.78;1.00;;;17.40;54.70;;;;;;5033053;28;20032;-77
2023/07/23 02:57:20;;;;;;;4.78;1.40;;;17.40;54.80;;;;;;5014277;28;20426;-76
2023/07/23 02:59:48;;;;;;;4.15;1.42;;;17.40;54.50;;;;;;5011540;28;20018;-82
2023/07/23 03:02:19;;;;;;;4.63;1.60;;;17.40;55.10;;;;;;5011927;28;20054;-76
2023/07/23 03:04:46;;;;;;;3.50;1.42;;;17.50;55.40;;;;;;5019267;28;20051;-76
2023/07/23 03:07:14;;;;;;;2.55;1.20;;;17.50;55.10;;;;;;5028493;28;20480;-77
2023/07/23 03:09:41;;;;;;;3.92;1.52;;;17.50;55.00;;;;;;5027536;28;20500;-76
2023/07/23 03:12:09;;;;;;;2.67;1.10;;;17.50;54.30;;;;;;5013979;28;20393;-75
2023/07/23 03:14:37;;;;;;;3.78;1.38;;;17.50;54.60;;;;;;5014820;28;20049;-78
2023/07/23 03:17:04;;;;;;;7.05;1.40;;;17.50;53.90;;;;;;5011084;28;20033;-77
2023/07/23 03:19:32;;;;;;;3.13;1.20;;;17.40;54.30;;;;;;5014580;28;20025;-76
2023/07/23 03:22:00;;;;;;;4.47;1.30;;;17.50;54.60;;;;;;5010478;28;20026;-81
2023/07/23 03:24:27;;;;;;;2.65;1.20;;;17.50;54.50;;;;;;5014780;28;20477;-77
2023/07/23 03:26:54;;;;;;;1.55;0.90;;;17.50;54.40;;;;;;5021701;28;20522;-76
2023/07/23 03:29:22;;;;;;;6.00;1.30;;;17.50;54.80;;;;;;5021329;28;20106;-81
2023/07/23 03:31:49;;;;;;;3.72;1.40;;;17.60;53.70;;;;;;5021382;28;20599;-76
2023/07/23 03:34:16;;;;;;;6.20;2.88;;;17.60;53.50;;;;;;5012514;28;20472;-77
2023/07/23 03:36:44;;;;;;;2.85;1.30;;;17.60;54.00;;;;;;5011657;28;20057;-83
2023/07/23 03:39:16;;;;;;;4.10;1.30;;;17.60;54.40;;;;;;5010191;28;20026;-76
2023/07/23 03:41:47;;;;;;;2.55;1.20;;;17.60;54.60;;;;;;5014820;28;20435;-77
2023/07/23 03:44:14;;;;;;;3.78;1.52;;;17.70;54.50;;;;;;5013728;28;20033;-78
2023/07/23 03:47:02;;;;;;;2.80;1.50;;;17.70;55.00;;;;;;5014300;28;20026;-77
2023/07/23 03:49:30;;;;;;;2.63;1.60;;;17.70;54.20;;;;;;5007299;28;20112;-79
2023/07/23 03:51:58;;;;;;;3.65;1.30;;;17.70;54.00;;;;;;5025988;28;20061;-76
2023/07/23 03:54:26;;;;;;;3.83;1.35;;;17.70;54.00;;;;;;5016624;28;20025;-76
2023/07/23 03:56:54;;;;;;;7.30;1.30;;;17.80;54.10;;;;;;5011027;28;20436;-76
2023/07/23 03:59:21;;;;;;;5.90;1.45;;;17.80;53.80;;;;;;5008120;28;20018;-77
2023/07/23 04:01:48;;;;;;;4.00;1.77;;;17.80;53.20;;;;;;5014717;28;20164;-76
2023/07/23 04:04:16;;;;;;;3.72;1.60;;;17.80;52.60;;;;;;5031493;28;20076;-77
2023/07/23 04:06:43;;;;;;;3.25;1.40;;;17.80;53.00;;;;;;5013106;28;20026;-79
2023/07/23 04:09:12;;;;;;;4.43;1.10;;;17.80;52.00;;;;;;5022965;28;20022;-80
2023/07/23 04:11:40;;;;;;;3.85;1.20;;;17.70;50.60;;;;;;5032207;28;20095;-76
2023/07/23 04:14:08;;;;;;;4.80;1.25;;;17.70;50.30;;;;;;5029673;28;20104;-78
2023/07/23 04:16:35;;;;;;;4.00;1.23;;;17.60;50.70;;;;;;5013226;28;20053;-76
2023/07/23 04:19:03;;;;;;;3.17;1.38;;;17.50;50.90;;;;;;5030084;28;20040;-77
2023/07/23 04:21:30;;;;;;;1.85;1.17;;;17.60;50.70;;;;;;5025677;28;20553;-77
2023/07/23 04:23:58;;;;;;;3.45;1.02;;;17.60;51.20;;;;;;5010288;28;20349;-81
2023/07/23 04:26:28;;;;;;;3.20;0.93;;;17.60;50.10;;;;;;5011315;28;20033;-76
2023/07/23 04:28:55;;;;;;;3.13;1.00;;;17.60;50.60;;;;;;5009669;28;20535;-77
2023/07/23 04:31:23;;;;;;;2.80;1.10;;;17.60;50.20;;;;;;5009785;28;20049;-82
2023/07/23 04:33:50;;;;;;;4.20;1.23;;;17.60;49.90;;;;;;5010462;28;20026;-78
2023/07/23 04:36:20;;;;;;;2.03;0.98;;;17.50;48.90;;;;;;5010194;28;20183;-78
2023/07/23 04:38:47;;;;;;;2.55;0.80;;;17.60;50.20;;;;;;5012667;28;20037;-77
2023/07/23 04:41:14;;;;;;;4.82;0.98;;;17.60;50.50;;;;;;5010916;28;20087;-79
2023/07/23 04:43:43;;;;;;;5.43;1.33;;;17.70;50.90;;;;;;5012170;28;20026;-78
2023/07/23 04:46:11;;;;;;;2.60;1.20;;;17.60;51.30;;;;;;5004954;28;20030;-77
2023/07/23 04:48:38;;;;;;;3.55;1.33;;;17.60;51.60;;;;;;5020777;28;20022;-77
2023/07/23 04:51:10;;;;;;;4.47;1.13;;;17.60;51.10;;;;;;5011184;28;20048;-77
2023/07/23 04:53:37;;;;;;;3.53;1.35;;;17.60;51.00;;;;;;5011392;28;20376;-80
2023/07/23 04:56:06;;;;;;;4.35;1.33;;;17.60;51.60;;;;;;5009910;28;20030;-76
2023/07/23 04:58:33;;;;;;;8.27;1.27;;;17.50;50.60;;;;;;5009899;28;20030;-77
2023/07/23 05:01:09;;;;;;;4.03;1.20;;;17.50;50.50;;;;;;5008714;28;20022;-81
2023/07/23 05:03:37;;;;;;;4.93;1.33;;;17.40;51.10;;;;;;5012197;28;20424;-76
2023/07/23 05:06:06;;;;;;;5.70;1.20;;;17.50;51.80;;;;;;5009190;28;20026;-79
2023/07/23 05:08:35;;;;;;;5.38;1.30;;;17.50;52.40;;;;;;5011479;28;20049;-76
2023/07/23 05:11:05;;;;;;;3.90;1.25;;;17.30;53.90;;;;;;5011164;28;20058;-77
2023/07/23 05:13:36;;;;;;;2.88;1.30;;;17.40;54.40;;;;;;5011160;28;20056;-77
2023/07/23 05:16:04;;;;;;;4.68;0.85;;;17.30;54.60;;;;;;5011885;28;20397;-76
2023/07/23 05:18:33;;;;;;;5.22;1.33;;;17.20;54.90;;;;;;5011695;28;20026;-76
2023/07/23 05:21:04;;;;;;;4.72;1.38;;;17.20;55.20;;;;;;5011590;28;20104;-77
2023/07/23 05:23:31;;;;;;;2.63;1.10;;;17.20;55.40;;;;;;5016099;28;20022;-76
2023/07/23 05:25:59;;;;;;;5.85;1.17;;;17.20;55.20;;;;;;5020160;28;20030;-76
2023/07/23 05:28:26;;;;;;;5.55;1.00;;;17.00;55.00;;;;;;5010512;28;20101;-76
2023/07/23 05:31:00;;;;;;;6.97;1.15;;;17.00;55.50;;;;;;5010162;28;20140;-77
2023/07/23 05:33:27;;;;;;;4.05;1.10;;;17.00;56.50;;;;;;5012105;28;20452;-77
2023/07/23 05:35:55;;;;;;;5.40;1.02;;;17.00;57.10;;;;;;5011832;28;20395;-76
2023/07/23 05:38:22;;;;;;;3.75;1.08;;;16.90;57.10;;;;;;5027004;28;20034;-78
2023/07/23 05:40:57;;;;;;;3.60;1.25;;;16.90;57.00;;;;;;5012881;28;20022;-76
2023/07/23 05:43:25;;;;;;;7.07;1.30;;;16.90;57.00;;;;;;5012646;28;20037;-76
2023/07/23 05:45:53;;;;;;;4.05;1.08;;;16.80;57.10;;;;;;5012859;28;20033;-75
2023/07/23 05:48:20;;;;;;;4.78;1.20;;;16.80;58.00;;;;;;5012890;28;20026;-76
2023/07/23 05:50:50;;;;;;;7.72;1.17;;;16.80;58.70;;;;;;5012581;28;20030;-75
2023/07/23 05:53:18;;;;;;;3.72;0.90;;;16.80;59.30;;;;;;5011482;28;20026;-76
2023/07/23 05:55:45;;;;;;;7.93;1.10;;;16.80;59.10;;;;;;5012891;28;20052;-76
2023/07/23 05:58:12;;;;;;;4.03;1.73;;;16.80;59.50;;;;;;5011041;28;20795;-77
2023/07/23 06:00:40;;;;;;;6.43;1.17;;;16.70;60.00;;;;;;5011598;28;20388;-76
2023/07/23 06:03:07;;;;;;;3.03;1.00;;;16.70;60.20;;;;;;5012205;28;20057;-75
2023/07/23 06:05:35;;;;;;;1.80;0.90;;;16.60;60.20;;;;;;5025496;28;20117;-77
2023/07/23 06:08:02;;;;;;;3.60;0.93;;;16.60;60.10;;;;;;5011469;28;20025;-76
2023/07/23 06:10:32;;;;;;;3.58;1.10;;;16.60;60.20;;;;;;5027264;28;20049;-77
2023/07/23 06:12:59;;;;;;;3.78;1.13;;;16.50;60.10;;;;;;5012635;28;20045;-76
2023/07/23 06:15:27;;;;;;;5.40;1.10;;;16.50;60.20;;;;;;5015964;28;20028;-76
2023/07/23 06:17:54;;;;;;;3.38;1.58;;;16.50;60.20;;;;;;5015924;28;20022;-77
2023/07/23 06:20:21;;;;;;;4.38;0.88;;;16.40;60.10;;;;;;5015929;28;20034;-76
2023/07/23 06:22:49;;;;;;;6.30;1.23;;;16.40;60.30;;;;;;5013643;28;20495;-76
2023/07/23 06:25:16;;;;;;;3.97;0.80;;;16.30;60.40;;;;;;5015580;28;20041;-76
2023/07/23 06:27:43;;;;;;;5.20;1.17;;;16.30;61.00;;;;;;5015745;28;20022;-76
2023/07/23 06:30:11;;;;;;;5.00;0.90;;;16.30;61.30;;;;;;5015682;28;20045;-76
2023/07/23 06:32:38;;;;;;;6.20;1.35;;;16.30;62.00;;;;;;5015143;28;20397;-77
2023/07/23 06:35:10;;;;;;;2.97;0.90;;;16.20;62.30;;;;;;5015591;28;20022;-76
2023/07/23 06:37:40;;;;;;;2.88;0.80;;;16.20;62.80;;;;;;5015687;28;20029;-75
2023/07/23 06:40:08;;;;;;;3.35;1.17;;;16.20;62.80;;;;;;5015545;28;20500;-76
2023/07/23 06:42:36;;;;;;;5.63;1.20;;;16.20;63.00;;;;;;5013838;28;20036;-76
2023/07/23 06:45:03;;;;;;;5.75;1.20;;;16.20;62.90;;;;;;5015045;28;20037;-76
2023/07/23 06:47:31;;;;;;;9.13;1.30;;;16.10;62.90;;;;;;5012330;28;20387;-76
2023/07/23 06:49:58;;;;;;;5.88;1.23;;;16.00;63.00;;;;;;5012723;28;20033;-76
2023/07/23 06:52:25;;;;;;;3.58;1.00;;;16.00;63.40;;;;;;5014500;28;20523;-76
2023/07/23 06:54:53;;;;;;;3.20;1.50;;;16.00;63.50;;;;;;5032572;28;20120;-76
2023/07/23 06:57:20;;;;;;;2.88;1.15;;;16.00;63.70;;;;;;5016944;28;20026;-75
2023/07/23 06:59:48;;;;;;;9.75;1.77;;;16.00;63.90;;;;;;5013761;28;20014;-76
2023/07/23 07:02:16;;;;;;;11.00;1.52;;;15.90;64.50;;;;;;5016168;28;20029;-74
2023/07/23 07:04:43;;;;;;;4.72;1.05;;;15.90;64.40;;;;;;5018288;28;20026;-74
2023/07/23 07:07:11;;;;;;;8.63;1.45;;;15.90;65.00;;;;;;5018097;28;20018;-74
2023/07/23 07:09:38;;;;;;;6.95;1.38;;;15.90;65.00;;;;;;5015803;28;20054;-77
2023/07/23 07:12:07;;;;;;;5.70;1.30;;;15.80;65.40;;;;;;5013993;28;20045;-76
2023/07/23 07:14:34;;;;;;;4.80;1.10;;;15.80;65.40;;;;;;5014910;28;20026;-76
2023/07/23 07:17:02;;;;;;;3.72;1.20;;;15.80;65.70;;;;;;5014092;28;20052;-76
2023/07/23 07:19:30;;;;;;;3.70;1.15;;;15.80;65.80;;;;;;5014116;28;20022;-76
2023/07/23 07:21:58;;;;;;;4.78;1.42;;;15.80;65.90;;;;;;5013577;28;20128;-76
2023/07/23 07:24:25;;;;;;;5.75;1.30;;;15.70;65.90;;;;;;5014338;28;20429;-76
2023/07/23 07:26:52;;;;;;;4.13;1.00;;;15.80;66.20;;;;;;5013187;28;20034;-76
2023/07/23 07:29:23;;;;;;;5.93;1.60;;;15.70;66.00;;;;;;5013192;28;20046;-76
2023/07/23 07:31:52;;;;;;;4.75;1.40;;;15.70;66.00;;;;;;5013144;28;20030;-76
2023/07/23 07:34:19;;;;;;;5.47;1.33;;;15.70;66.20;;;;;;5016039;28;20018;-76
2023/07/23 07:36:48;;;;;;;9.35;1.45;;;15.70;66.10;;;;;;5013432;28;20022;-76
2023/07/23 07:39:15;;;;;;;6.90;1.70;;;15.70;66.10;;;;;;5012637;28;20500;-76
2023/07/23 07:41:43;;;;;;;8.30;1.67;;;15.70;66.20;;;;;;5012595;28;20438;-76
2023/07/23 07:44:10;;;;;;;4.70;1.40;;;15.60;66.30;;;;;;5013875;28;20101;-75
2023/07/23 07:46:38;;;;;;;6.53;1.48;;;15.60;66.40;;;;;;5013548;28;20030;-75
2023/07/23 07:49:05;;;;;;;6.63;1.42;;;15.60;66.50;;;;;;5013331;28;20048;-76
2023/07/23 07:51:32;;;;;;;5.78;1.00;;;15.60;66.60;;;;;;5012893;28;20052;-76
2023/07/23 07:54:00;;;;;;;4.07;1.33;;;15.60;66.60;;;;;;5014092;28;20423;-75
2023/07/23 07:56:27;;;;;;;4.45;1.10;;;15.60;66.80;;;;;;5013952;28;20042;-77
2023/07/23 07:58:55;;;;;;;6.63;1.50;;;15.50;66.80;;;;;;5014208;28;20018;-77
2023/07/23 08:01:23;;;;;;;4.90;1.35;;;15.50;67.00;;;;;;5013789;28;20025;-76
2023/07/23 08:03:50;;;;;;;5.38;1.50;;;15.50;67.00;;;;;;5013355;28;20029;-76
2023/07/23 08:06:18;;;;;;;4.78;1.40;;;15.50;67.00;;;;;;5011888;28;20060;-75
2023/07/23 08:08:50;;;;;;;6.40;1.35;;;15.50;67.20;;;;;;5013929;28;20021;-77
2023/07/23 08:11:17;;;;;;;5.88;1.20;;;15.50;67.40;;;;;;5012757;28;20092;-76
2023/07/23 08:13:45;;;;;;;3.50;1.17;;;15.40;67.50;;;;;;5013979;28;20425;-76
2023/07/23 08:16:16;;;;;;;1.90;1.17;;;15.40;67.50;;;;;;5012981;28;20481;-77
2023/07/23 08:18:44;;;;;;;7.32;1.58;;;15.40;67.70;;;;;;5012445;28;20033;-75
2023/07/23 08:21:14;;;;;;;4.70;1.33;;;15.40;68.00;;;;;;5011018;28;20061;-77
2023/07/23 08:23:42;;;;;;;5.13;1.40;;;15.40;68.30;;;;;;5018561;28;20049;-76
2023/07/23 08:26:11;;;;;;;7.65;1.95;;;15.30;68.40;;;;;;5012526;28;20022;-79
2023/07/23 08:28:51;;;;;;;5.97;1.40;;;15.40;68.60;;;;;;5013155;28;20058;-82
2023/07/23 08:31:20;;;;;;;7.05;1.40;;;15.30;69.00;;;;;;5016621;28;20041;-77
2023/07/23 08:33:49;;;;;;;6.38;1.60;;;15.30;69.00;;;;;;5032082;28;20087;-79
2023/07/23 08:36:16;;;;;;;6.18;1.50;;;15.30;69.20;;;;;;5027809;28;20036;-77
2023/07/23 08:38:44;;;;;;;7.63;2.00;;;15.30;69.20;;;;;;5014321;28;20030;-76
2023/07/23 08:41:24;;;;;;;5.45;1.67;;;15.30;69.20;;;;;;5012470;28;20113;-76
2023/07/23 08:43:52;;;;;;;9.05;2.33;;;15.20;69.20;;;;;;5025363;28;20449;-76
2023/07/23 08:46:27;;;;;;;10.05;2.80;;;15.20;69.30;;;;;;5019415;28;20040;-77
2023/07/23 08:48:57;;;;;;;20.90;4.95;;;15.20;69.30;;;;;;5017280;28;20026;-76
2023/07/23 08:51:31;;;;;;;10.82;3.00;;;15.20;69.60;;;;;;5029248;28;20496;-78
2023/07/23 08:53:59;;;;;;;12.05;3.90;;;15.30;69.80;;;;;;5013520;28;20045;-81
2023/07/23 08:56:27;;;;;;;6.78;2.42;;;15.20;69.70;;;;;;5018522;28;20045;-77
2023/07/23 08:58:55;;;;;;;8.43;2.15;;;15.20;69.70;;;;;;5019287;28;20540;-77
2023/07/23 09:01:24;;;;;;;8.07;2.20;;;15.20;69.90;;;;;;5030207;28;20033;-76
2023/07/23 09:03:51;;;;;;;9.10;2.78;;;15.20;69.70;;;;;;5017291;28;20097;-76
2023/07/23 09:06:20;;;;;;;6.15;1.85;;;15.20;69.60;;;;;;5010167;28;20021;-83
2023/07/23 09:08:47;;;;;;;12.63;4.88;;;15.20;69.70;;;;;;5012190;28;20549;-81
2023/07/23 09:11:15;;;;;;;10.18;5.25;;;15.20;69.70;;;;;;5013672;28;20492;-77
2023/07/23 09:13:43;;;;;;;9.55;3.08;;;15.20;69.70;;;;;;5013255;28;20041;-79
2023/07/23 09:16:10;;;;;;;17.00;9.40;;;15.20;70.30;;;;;;5011450;28;20033;-77
2023/07/23 09:18:41;;;;;;;9.23;3.92;;;15.20;70.70;;;;;;5012927;28;20412;-75
2023/07/23 09:21:09;;;;;;;11.60;4.75;;;15.20;71.50;;;;;;5011857;28;20576;-76
2023/07/23 09:23:38;;;;;;;25.23;15.93;;;15.20;72.10;;;;;;5016040;28;20083;-79
2023/07/23 09:26:08;;;;;;;21.42;10.90;;;15.10;72.50;;;;;;5027378;28;20431;-80
2023/07/23 09:28:36;;;;;;;11.50;3.25;;;15.00;72.40;;;;;;5012695;28;20161;-76
2023/07/23 09:31:03;;;;;;;11.85;5.75;;;15.00;72.70;;;;;;5011429;28;20125;-78
2023/07/23 09:33:37;;;;;;;17.33;4.00;;;15.00;73.00;;;;;;5012434;28;20510;-77
2023/07/23 09:36:05;;;;;;;7.40;2.95;;;15.00;73.10;;;;;;5011922;28;20041;-77
2023/07/23 09:38:34;;;;;;;8.18;2.47;;;15.00;73.20;;;;;;5022794;28;20027;-77
2023/07/23 09:41:01;;;;;;;5.28;2.78;;;15.00;73.40;;;;;;5027950;28;20040;-76
2023/07/23 09:43:30;;;;;;;9.57;2.72;;;15.00;73.30;;;;;;5019681;28;20064;-78
2023/07/23 09:45:57;;;;;;;6.63;2.70;;;14.90;73.50;;;;;;5018627;28;20030;-77
2023/07/23 09:48:27;;;;;;;7.45;3.50;;;14.90;73.70;;;;;;5015997;28;20046;-75
2023/07/23 09:50:58;;;;;;;9.98;2.47;;;14.80;73.70;;;;;;5014381;28;20039;-76
2023/07/23 09:53:29;;;;;;;7.25;2.35;;;14.80;73.90;;;;;;5030443;28;20473;-79
2023/07/23 09:55:58;;;;;;;5.45;2.30;;;14.80;74.20;;;;;;5012959;28;20072;-77
2023/07/23 09:58:27;;;;;;;8.35;2.28;;;14.70;74.10;;;;;;5015358;28;20030;-77
2023/07/23 10:00:56;;;;;;;5.43;2.08;;;14.70;74.40;;;;;;5035030;28;20100;-76
2023/07/23 10:03:24;;;;;;;7.20;2.58;;;14.70;74.90;;;;;;5019865;28;20038;-76
2023/07/23 10:05:52;;;;;;;4.85;1.70;;;14.60;75.20;;;;;;5015558;28;20034;-77
2023/07/23 10:08:22;;;;;;;9.57;2.25;;;14.60;75.50;;;;;;5005545;28;20034;-74
2023/07/23 10:10:49;;;;;;;6.80;2.17;;;14.50;75.90;;;;;;5012688;28;20049;-80
2023/07/23 10:13:17;;;;;;;5.65;1.63;;;14.50;76.30;;;;;;5006285;28;20022;-75
2023/07/23 10:15:46;;;;;;;7.03;1.70;;;14.40;76.70;;;;;;5015888;28;20564;-74
2023/07/23 10:18:14;;;;;;;5.22;2.10;;;14.40;76.80;;;;;;5021030;28;20042;-80
2023/07/23 10:20:45;;;;;;;10.80;2.53;;;14.30;76.90;;;;;;5011316;28;20018;-79
2023/07/23 10:23:14;;;;;;;7.18;2.30;;;14.30;77.20;;;;;;5013841;28;20080;-75
2023/07/23 10:25:41;;;;;;;8.80;2.20;;;14.40;77.50;;;;;;5015519;28;20018;-74
2023/07/23 10:28:10;;;;;;;5.78;3.20;;;14.30;77.70;;;;;;5010655;28;20423;-78
2023/07/23 10:30:38;;;;;;;8.65;2.60;;;14.30;77.80;;;;;;5010831;28;20033;-74
2023/07/23 10:33:11;;;;;;;7.63;2.45;;;14.30;78.10;;;;;;5009155;28;20096;-76
2023/07/23 10:35:53;;;;;;;7.15;2.08;;;14.20;78.20;;;;;;5020739;28;20029;-80
2023/07/23 10:38:26;;;;;;;6.70;1.60;;;14.20;78.60;;;;;;5015810;28;20030;-80
2023/07/23 10:40:56;;;;;;;10.10;1.95;;;14.20;79.00;;;;;;5014834;28;20078;-76
2023/07/23 10:43:24;;;;;;;8.40;2.00;;;14.20;79.20;;;;;;5010685;28;20061;-77
2023/07/23 10:46:14;;;;;;;3.95;1.77;;;14.20;79.50;;;;;;5011305;28;20025;-76
2023/07/23 10:48:43;;;;;;;6.50;2.42;;;14.10;79.50;;;;;;5018883;28;20018;-73
2023/07/23 10:51:13;;;;;;;8.43;2.28;;;14.10;79.50;;;;;;5020376;28;20037;-73
2023/07/23 10:53:53;;;;;;;10.75;3.83;;;14.00;79.50;;;;;;5011996;28;20029;-75
2023/07/23 10:56:34;;;;;;;5.65;2.20;;;14.00;79.60;;;;;;5018172;28;20384;-76
2023/07/23 10:59:08;;;;;;;7.57;2.00;;;14.00;79.80;;;;;;5008702;28;20022;-79
2023/07/23 11:01:40;;;;;;;7.70;1.90;;;14.00;80.30;;;;;;5027039;28;20366;-78
2023/07/23 11:04:19;;;;;;;4.85;1.50;;;14.00;80.60;;;;;;5015825;28;20013;-78
2023/07/23 11:06:56;;;;;;;5.72;1.75;;;13.90;80.80;;;;;;5018224;28;20596;-78
2023/07/23 11:09:29;;;;;;;8.55;2.17;;;13.80;81.20;;;;;;5017995;28;20042;-77
2023/07/23 11:11:58;;;;;;;8.32;2.17;;;13.80;81.30;;;;;;5013280;28;20033;-74
2023/07/23 11:14:27;;;;;;;8.10;2.50;;;13.80;81.60;;;;;;5012207;28;20081;-77
2023/07/23 11:17:02;;;;;;;6.88;1.90;;;13.80;82.00;;;;;;5009924;28;20026;-76
2023/07/23 11:19:31;;;;;;;8.40;1.60;;;13.70;82.40;;;;;;5014381;28;20102;-77
2023/07/23 11:22:06;;;;;;;10.57;1.90;;;13.70;82.90;;;;;;5024697;28;20038;-77
2023/07/23 11:24:33;;;;;;;5.15;1.42;;;13.70;83.00;;;;;;5021394;28;20104;-77
2023/07/23 11:27:03;;;;;;;6.47;2.10;;;13.60;83.10;;;;;;5002653;28;20022;-80
2023/07/23 11:29:36;;;;;;;10.60;2.35;;;13.60;83.20;;;;;;5016984;28;20083;-75
2023/07/23 11:32:05;;;;;;;7.22;1.75;;;13.60;83.30;;;;;;5012421;28;20045;-76
2023/07/23 11:34:33;;;;;;;9.55;2.08;;;13.60;83.30;;;;;;5006009;28;20019;-76
2023/07/23 11:37:00;;;;;;;10.63;4.85;;;13.60;83.30;;;;;;5009845;28;20030;-76
2023/07/23 11:39:28;;;;;;;7.60;2.25;;;13.60;83.50;;;;;;5011743;28;20022;-76
2023/07/23 11:41:55;;;;;;;7.95;2.38;;;13.70;83.50;;;;;;5012268;28;20052;-77
2023/07/23 11:44:24;;;;;;;5.93;1.98;;;13.70;83.60;;;;;;5014579;28;20029;-78
2023/07/23 11:47:03;;;;;;;6.10;3.03;;;13.70;83.90;;;;;;5007841;28;20354;-76
2023/07/23 11:49:31;;;;;;;10.73;1.95;;;13.70;83.90;;;;;;5010143;28;20177;-78
2023/07/23 11:52:02;;;;;;;7.93;1.77;;;13.70;83.90;;;;;;5014490;28;20164;-77
2023/07/23 11:54:29;;;;;;;11.15;2.63;;;13.70;84.00;;;;;;5013301;28;20041;-77
2023/07/23 11:56:56;;;;;;;6.57;1.75;;;13.70;84.10;;;;;;5012519;28;20099;-79
2023/07/23 11:59:24;;;;;;;5.72;2.40;;;13.70;84.40;;;;;;5015696;28;20030;-77
2023/07/23 12:01:58;;;;;;;4.43;2.30;;;13.60;84.40;;;;;;5028341;28;20080;-79
2023/07/23 12:04:26;;;;;;;6.40;1.48;;;13.60;84.40;;;;;;5012591;28;20396;-78
2023/07/23 12:06:53;;;;;;;7.10;3.20;;;13.60;84.60;;;;;;5012442;28;20189;-77
2023/07/23 12:09:21;;;;;;;7.30;2.03;;;13.60;84.60;;;;;;5015651;28;20516;-77
2023/07/23 12:11:48;;;;;;;9.45;1.30;;;13.60;84.80;;;;;;5001704;28;20116;-77
2023/07/23 12:14:16;;;;;;;9.43;1.70;;;13.60;85.00;;;;;;5014000;28;20080;-76
2023/07/23 12:16:49;;;;;;;7.28;1.70;;;13.60;85.00;;;;;;5014340;28;20410;-77
2023/07/23 12:19:23;;;;;;;6.95;1.40;;;13.60;85.10;;;;;;5012125;28;20507;-77
2023/07/23 12:21:58;;;;;;;6.45;1.45;;;13.60;85.00;;;;;;5011394;28;20022;-76
2023/07/23 12:24:28;;;;;;;9.35;2.00;;;13.70;85.20;;;;;;5010516;28;20468;-78
2023/07/23 12:26:57;;;;;;;8.00;2.03;;;13.70;85.20;;;;;;5011103;28;20041;-78
2023/07/23 12:29:26;;;;;;;7.57;3.15;;;13.70;85.20;;;;;;5001412;28;20026;-77
2023/07/23 12:32:13;;;;;;;5.05;1.60;;;13.70;85.20;;;;;;5009434;28;20046;-79
2023/07/23 12:34:45;;;;;;;9.10;2.65;;;13.70;85.20;;;;;;5008697;28;20358;-78
2023/07/23 12:37:15;;;;;;;2.97;1.13;;;13.70;85.40;;;;;;5015942;28;20105;-79
2023/07/23 12:39:44;;;;;;;4.75;1.08;;;13.70;85.20;;;;;;5017967;28;20171;-78
2023/07/23 12:42:12;;;;;;;5.05;1.10;;;13.70;85.20;;;;;;5010593;28;20380;-78
2023/07/23 12:44:39;;;;;;;2.00;1.10;;;13.70;85.10;;;;;;5015196;28;20025;-77
2023/07/23 12:47:06;;;;;;;4.10;1.00;;;13.80;85.20;;;;;;5010442;28;20025;-76
2023/07/23 12:49:34;;;;;;;5.00;2.85;;;13.80;85.20;;;;;;5010852;28;20092;-78
2023/07/23 12:52:03;;;;;;;4.68;1.23;;;13.70;85.00;;;;;;5020565;28;20034;-78
2023/07/23 12:54:30;;;;;;;6.15;1.00;;;13.80;85.10;;;;;;5015298;28;20097;-78